Time;durP1;ratioP1;P1;durP2;ratioP2;P2;SDS_P1;SDS_P2;PMS_P1;PMS_P2;Temp;Humidity;BMP_temperature;BMP_pressure;BME280_temperature;BME280_humidity;BME280_pressure;Samples;Min_cycle;Max_cycle;Signal;HPM_P1;HPM_P2
2021/11/02 00:00:42;;;;;;;5.50;2.05;;;;;;;9.53;68.56;98726.09;5006350;28;20050;-87
2021/11/02 00:03:09;;;;;;;8.38;2.25;;;;;;;9.55;68.50;98720.97;5038212;28;20068;-88
2021/11/02 00:05:36;;;;;;;7.50;2.40;;;;;;;9.60;68.43;98717.19;5020691;28;20049;-87
2021/11/02 00:08:05;;;;;;;7.47;2.28;;;;;;;9.64;68.25;98723.63;5017533;28;20058;-87
2021/11/02 00:10:35;;;;;;;4.50;1.60;;;;;;;9.61;68.44;98719.59;5013275;28;20053;-87
2021/11/02 00:13:03;;;;;;;6.45;1.80;;;;;;;9.72;68.41;98726.28;5030413;28;20065;-87
2021/11/02 00:15:36;;;;;;;3.83;1.60;;;;;;;9.78;68.62;98726.03;5019683;28;20061;-87
2021/11/02 00:18:05;;;;;;;3.95;1.67;;;;;;;9.85;68.31;98729.00;5031977;28;20159;-87
2021/11/02 00:20:37;;;;;;;5.43;1.70;;;;;;;9.91;67.80;98727.59;5018042;28;20050;-87
2021/11/02 00:23:06;;;;;;;3.67;1.58;;;;;;;9.92;68.05;98732.81;5017681;28;20053;-87
2021/11/02 00:25:36;;;;;;;5.63;1.83;;;;;;;9.97;67.69;98726.19;5017166;28;20050;-87
2021/11/02 00:28:04;;;;;;;8.95;2.15;;;;;;;9.98;67.86;98729.81;5017478;28;20057;-87
2021/11/02 00:30:32;;;;;;;6.97;2.10;;;;;;;9.99;67.93;98729.44;5017364;28;20061;-87
2021/11/02 00:33:01;;;;;;;4.75;1.92;;;;;;;10.01;67.55;98724.31;5022578;28;20041;-87
2021/11/02 00:35:28;;;;;;;5.35;2.25;;;;;;;10.01;67.64;98726.31;5033629;28;20057;-87
2021/11/02 00:37:56;;;;;;;5.50;2.10;;;;;;;10.01;67.80;98729.88;5016798;28;20407;-87
2021/11/02 00:40:24;;;;;;;9.70;2.60;;;;;;;9.89;68.21;98733.53;5016542;28;20049;-87
2021/11/02 00:42:54;;;;;;;8.82;1.98;;;;;;;9.96;67.87;98730.94;5016909;28;20046;-87
2021/11/02 00:45:29;;;;;;;4.65;1.90;;;;;;;10.01;68.29;98729.88;5016592;28;20065;-87
2021/11/02 00:47:58;;;;;;;6.28;2.00;;;;;;;10.07;68.62;98719.31;5011349;28;20053;-87
2021/11/02 00:50:26;;;;;;;7.00;1.85;;;;;;;10.08;68.23;98726.50;5002918;28;20617;-87
2021/11/02 00:52:53;;;;;;;6.07;2.10;;;;;;;10.05;69.05;98728.03;5016750;28;20053;-87
2021/11/02 00:55:22;;;;;;;4.57;1.70;;;;;;;10.14;68.87;98725.06;5002294;28;20166;-87
2021/11/02 00:57:49;;;;;;;4.80;2.05;;;;;;;10.20;68.68;98720.06;5036857;28;20069;-87
2021/11/02 01:00:19;;;;;;;5.32;1.70;;;;;;;10.27;68.62;98723.88;5029554;28;20065;-87
2021/11/02 01:02:47;;;;;;;6.85;2.13;;;;;;;10.32;68.47;98728.41;5016314;28;20380;-87
2021/11/02 01:05:15;;;;;;;4.05;1.60;;;;;;;10.38;68.22;98728.97;5015966;28;20526;-87
2021/11/02 01:07:43;;;;;;;4.65;1.70;;;;;;;10.40;68.81;98729.41;5015847;28;20399;-87
2021/11/02 01:10:16;;;;;;;3.92;1.52;;;;;;;10.43;68.35;98718.34;5016213;28;20050;-87
2021/11/02 01:12:47;;;;;;;5.75;1.77;;;;;;;10.48;68.19;98712.53;5016221;28;20060;-87
2021/11/02 01:15:17;;;;;;;9.52;2.17;;;;;;;10.55;67.89;98717.50;5015848;28;20061;-87
2021/11/02 01:17:46;;;;;;;6.57;2.00;;;;;;;10.57;68.24;98713.16;5005211;28;20400;-87
2021/11/02 01:20:15;;;;;;;4.80;1.75;;;;;;;10.62;67.89;98712.09;5031799;28;20442;-86
2021/11/02 01:22:44;;;;;;;4.78;1.77;;;;;;;10.64;67.78;98711.75;5017891;28;20415;-87
2021/11/02 01:25:12;;;;;;;5.60;1.85;;;;;;;10.67;67.51;98711.03;5002081;28;20408;-87
2021/11/02 01:27:41;;;;;;;7.68;2.05;;;;;;;10.68;67.62;98709.88;5000482;28;20057;-87
2021/11/02 01:30:10;;;;;;;3.30;1.75;;;;;;;10.73;67.68;98712.38;5016241;28;20054;-87
2021/11/02 01:32:38;;;;;;;6.75;1.77;;;;;;;10.74;67.53;98716.78;5016585;28;20057;-87
2021/11/02 01:35:07;;;;;;;7.50;2.47;;;;;;;10.77;67.53;98713.25;5015969;28;20057;-87
2021/11/02 01:37:38;;;;;;;7.78;2.33;;;;;;;10.79;67.29;98712.91;5015842;28;20057;-87
2021/11/02 01:40:07;;;;;;;6.13;1.67;;;;;;;10.75;67.25;98708.06;5016415;28;20427;-87
2021/11/02 01:42:35;;;;;;;6.00;1.70;;;;;;;10.75;67.37;98710.88;5015937;28;20050;-87
2021/11/02 01:45:03;;;;;;;8.90;2.00;;;;;;;10.81;67.36;98705.00;5001690;28;20055;-87
2021/11/02 01:47:34;;;;;;;4.28;1.48;;;;;;;10.86;67.58;98711.13;4997709;28;20061;-87
2021/11/02 01:50:02;;;;;;;4.72;1.35;;;;;;;10.87;67.28;98709.16;5009710;28;20049;-87
2021/11/02 01:52:32;;;;;;;5.40;1.73;;;;;;;10.94;67.12;98712.09;5000231;28;20054;-87
2021/11/02 01:55:00;;;;;;;5.65;1.67;;;;;;;10.96;66.98;98713.38;5010699;28;20138;-87
2021/11/02 01:57:28;;;;;;;5.93;1.60;;;;;;;11.00;66.92;98702.31;5025045;28;20509;-87
2021/11/02 01:59:55;;;;;;;5.05;1.55;;;;;;;10.97;67.14;98705.81;5027343;28;20057;-87
2021/11/02 02:02:37;;;;;;;5.70;1.52;;;;;;;11.00;67.85;98701.50;5003466;28;20058;-87
2021/11/02 02:05:11;;;;;;;5.40;1.73;;;;;;;10.93;67.88;98705.72;5011292;28;20046;-87
2021/11/02 02:07:52;;;;;;;7.75;1.60;;;;;;;10.85;68.52;98705.91;5014869;28;20061;-87
2021/11/02 02:10:25;;;;;;;6.07;2.05;;;;;;;10.89;68.62;98704.03;5014582;28;20058;-87
2021/11/02 02:13:06;;;;;;;5.65;1.55;;;;;;;10.84;68.65;98712.66;5012588;28;20050;-87
2021/11/02 02:15:43;;;;;;;3.08;1.25;;;;;;;10.78;69.30;98703.75;5034352;28;20049;-87
2021/11/02 02:18:15;;;;;;;4.63;1.80;;;;;;;10.86;68.75;98702.78;5034992;28;20049;-87
2021/11/02 02:21:11;;;;;;;7.03;2.13;;;;;;;10.82;69.34;98704.66;5016967;28;20054;-87
2021/11/02 02:23:54;;;;;;;6.38;1.98;;;;;;;10.69;69.80;98714.28;5012754;28;20055;-87
2021/11/02 02:26:35;;;;;;;4.65;1.40;;;;;;;10.82;69.39;98706.66;5019880;28;20053;-86
2021/11/02 02:29:07;;;;;;;4.63;1.30;;;;;;;10.86;69.13;98715.91;5030589;28;20033;-87
2021/11/02 02:31:39;;;;;;;3.15;1.33;;;;;;;10.86;69.20;98716.69;4995964;28;20046;-86
2021/11/02 02:34:11;;;;;;;6.20;1.85;;;;;;;10.82;69.21;98707.44;5004450;28;20054;-87
2021/11/02 02:36:43;;;;;;;5.15;1.45;;;;;;;10.64;69.92;98714.53;5014949;28;20427;-87
2021/11/02 02:39:13;;;;;;;4.60;1.48;;;;;;;10.73;69.95;98712.38;5014812;28;20054;-87
2021/11/02 02:41:41;;;;;;;;;;;;;;;10.51;70.62;98711.00;5013868;28;20061;-87
2021/11/02 02:44:12;;;;;;;3.53;1.30;;;;;;;10.64;70.22;98706.97;5008826;28;19928;-87
2021/11/02 02:46:41;;;;;;;4.45;1.33;;;;;;;10.38;71.30;98704.72;5033358;28;20177;-87
2021/11/02 02:49:11;;;;;;;3.53;1.40;;;;;;;10.52;70.38;98704.28;5022797;28;20057;-87
2021/11/02 02:51:42;;;;;;;4.75;1.35;;;;;;;10.72;69.15;98699.63;5012703;28;20053;-87
2021/11/02 02:54:11;;;;;;;5.00;2.15;;;;;;;10.69;69.67;98694.78;5015432;28;20058;-86
2021/11/02 02:56:43;;;;;;;5.03;1.85;;;;;;;10.59;69.74;98700.88;5011079;28;20061;-87
2021/11/02 02:59:14;;;;;;;4.05;1.45;;;;;;;10.62;69.53;98697.38;5026877;28;20057;-87
2021/11/02 03:01:45;;;;;;;4.90;1.10;;;;;;;10.37;70.53;98694.72;5010799;28;20050;-87
2021/11/02 03:04:17;;;;;;;3.05;1.48;;;;;;;10.53;70.05;98692.78;5013699;28;20388;-87
2021/11/02 03:06:50;;;;;;;5.18;1.40;;;;;;;10.40;70.77;98687.66;5015328;28;20054;-87
2021/11/02 03:09:19;;;;;;;4.32;1.42;;;;;;;10.54;70.04;98690.81;5015003;28;20495;-87
2021/11/02 03:11:46;;;;;;;5.15;1.60;;;;;;;10.41;70.49;98692.84;5014756;28;20511;-87
2021/11/02 03:14:22;;;;;;;3.88;1.70;;;;;;;10.60;70.25;98691.34;5015488;28;20054;-87
2021/11/02 03:16:56;;;;;;;5.00;1.75;;;;;;;10.62;69.65;98689.03;5015493;28;20050;-87
2021/11/02 03:50:23;;;;;;;5.32;1.83;;;;;;;10.50;70.06;98693.50;5012661;28;20514;-87
2021/11/02 03:55:42;;;;;;;7.10;2.67;;;;;;;10.57;69.71;98698.44;4996836;28;20061;-86
2021/11/02 03:58:17;;;;;;;4.50;2.45;;;;;;;10.62;69.28;98694.59;5018632;28;20060;-87
2021/11/02 05:49:20;;;;;;;10.60;7.15;;;;;;;8.92;72.46;98676.97;4933242;29;20187;-87
2021/11/02 05:54:53;;;;;;;9.95;7.00;;;;;;;8.82;72.23;98686.56;5014524;28;20060;-87
2021/11/02 05:57:25;;;;;;;8.82;6.55;;;;;;;8.79;72.18;98694.78;5015616;28;20065;-87
2021/11/02 05:59:58;;;;;;;10.68;7.30;;;;;;;8.75;72.46;98697.44;5011873;28;20057;-87
2021/11/02 06:02:46;;;;;;;11.55;7.75;;;;;;;8.73;71.84;98703.34;5015110;28;20588;-87
2021/11/02 06:05:38;;;;;;;13.93;7.60;;;;;;;8.65;72.12;98704.25;5017141;28;20046;-87
2021/11/02 06:08:28;;;;;;;11.05;8.05;;;;;;;8.62;72.57;98704.13;5016507;28;20054;-87
2021/11/02 06:11:17;;;;;;;13.20;8.43;;;;;;;8.57;72.13;98698.78;5015812;28;20041;-87
2021/11/02 06:28:04;;;;;;;11.73;7.72;;;;;;;8.30;72.64;98698.25;5009758;28;20053;-87
2021/11/02 06:30:37;;;;;;;9.70;7.22;;;;;;;8.29;72.76;98704.94;5003557;28;20388;-87
2021/11/02 06:33:12;;;;;;;10.75;7.75;;;;;;;8.24;72.60;98705.97;4995221;28;20065;-86
2021/11/02 06:35:50;;;;;;;10.68;7.57;;;;;;;8.24;72.83;98707.97;5004786;28;20053;-86
2021/11/02 06:38:56;;;;;;;8.50;6.72;;;;;;;8.23;72.52;98706.31;5012443;28;20065;-86
2021/11/02 06:53:12;;;;;;;11.88;6.85;;;;;;;8.33;72.62;98714.22;4932518;29;20544;-86
2021/11/02 06:59:12;;;;;;;10.90;6.57;;;;;;;8.49;72.26;98714.41;4994013;28;20525;-86
2021/11/02 07:15:51;;;;;;;7.20;4.10;;;;;;;9.76;70.31;98701.34;5018989;28;20061;-83
2021/11/02 07:18:20;;;;;;;5.95;4.05;;;;;;;9.98;70.04;98702.78;5009541;28;20054;-83
2021/11/02 07:20:57;;;;;;;4.13;3.42;;;;;;;10.54;68.52;98705.56;4999653;28;20054;-82
2021/11/02 07:23:37;;;;;;;5.82;3.78;;;;;;;11.22;66.43;98706.41;5016897;28;20156;-83
2021/11/02 07:26:19;;;;;;;6.13;3.80;;;;;;;11.31;65.32;98711.78;5008427;28;20056;-81
2021/11/02 08:45:07;;;;;;;3.63;1.13;;;;;;;18.82;40.50;98705.75;5022146;28;20057;-82
2021/11/02 08:47:39;;;;;;;3.85;0.85;;;;;;;18.70;40.39;98707.00;5019324;28;20064;-82
2021/11/02 08:50:08;;;;;;;4.80;0.93;;;;;;;18.43;41.09;98706.75;5016393;28;20060;-84
2021/11/02 08:52:37;;;;;;;3.65;1.20;;;;;;;17.52;42.28;98721.53;5010838;28;20446;-85
2021/11/02 08:55:06;;;;;;;1.85;0.90;;;;;;;15.76;46.19;98724.72;5011437;28;20079;-85
2021/11/02 08:57:33;;;;;;;2.28;0.80;;;;;;;15.57;46.91;98716.59;5021146;28;20399;-85
2021/11/02 09:00:03;;;;;;;2.33;1.00;;;;;;;15.26;47.87;98723.56;5009028;28;20054;-85
2021/11/02 09:02:34;;;;;;;2.10;0.90;;;;;;;14.78;48.63;98727.16;5014955;28;20069;-82
2021/11/02 09:05:08;;;;;;;3.35;1.15;;;;;;;14.35;50.27;98723.88;5020661;28;20045;-85
2021/11/02 09:07:37;;;;;;;1.77;0.80;;;;;;;13.07;53.27;98730.06;5016061;28;20060;-85
2021/11/02 09:10:11;;;;;;;2.08;0.90;;;;;;;13.02;53.44;98729.56;5011571;28;20045;-83
2021/11/02 09:12:42;;;;;;;5.18;1.13;;;;;;;12.87;54.28;98726.56;5016480;28;20061;-82
2021/11/02 09:15:14;;;;;;;2.78;0.90;;;;;;;12.39;55.64;98734.47;5022880;28;20053;-81
2021/11/02 09:17:45;;;;;;;2.80;1.00;;;;;;;12.36;55.99;98733.19;5022733;28;20057;-82
2021/11/02 09:20:15;;;;;;;3.80;1.00;;;;;;;11.99;57.47;98721.69;5021354;28;20068;-82
2021/11/02 09:22:43;;;;;;;4.05;1.10;;;;;;;12.01;57.44;98722.16;5023962;28;20057;-81
2021/11/02 09:25:11;;;;;;;3.10;1.00;;;;;;;12.33;56.46;98724.75;5023573;28;20125;-81
2021/11/02 09:27:39;;;;;;;3.38;0.98;;;;;;;11.63;59.00;98715.31;5023511;28;20069;-81
2021/11/02 09:30:09;;;;;;;2.63;1.20;;;;;;;11.86;58.23;98723.75;5016330;28;20061;-83
2021/11/02 09:32:37;;;;;;;;;;;;;;;12.32;57.76;98734.31;5015398;28;20057;-83
2021/11/02 09:35:05;;;;;;;4.63;1.98;;;;;;;12.27;57.03;98732.63;5020168;28;19932;-83
2021/11/02 09:37:35;;;;;;;3.10;1.10;;;;;;;12.61;56.47;98732.88;5022896;28;20105;-83
2021/11/02 09:40:11;;;;;;;5.50;1.67;;;;;;;12.66;56.02;98726.16;5018658;28;20411;-83
2021/11/02 09:43:11;;;;;;;2.60;0.98;;;;;;;12.99;55.28;98731.94;5012256;28;20061;-82
2021/11/02 09:46:13;;;;;;;2.45;1.00;;;;;;;13.45;54.36;98733.09;5008770;28;20069;-83
2021/11/02 09:49:25;;;;;;;3.45;1.20;;;;;;;13.53;53.64;98734.81;5011480;28;20050;-83
2021/11/02 09:52:25;;;;;;;3.25;1.00;;;;;;;13.58;53.57;98723.28;5009790;28;20054;-83
2021/11/02 09:55:30;;;;;;;2.47;1.15;;;;;;;13.98;53.23;98716.22;4996325;28;20045;-82
2021/11/02 09:58:16;;;;;;;3.13;0.95;;;;;;;14.24;52.43;98722.94;5014311;28;20415;-85
2021/11/02 10:01:04;;;;;;;2.80;1.08;;;;;;;13.60;53.35;98715.31;5011660;28;20057;-82
2021/11/02 10:04:12;;;;;;;3.15;1.02;;;;;;;15.16;50.16;98717.50;5012383;28;20499;-80
2021/11/02 10:07:19;;;;;;;3.30;1.05;;;;;;;16.56;45.46;98712.63;5012809;28;20487;-80
2021/11/02 10:09:57;;;;;;;3.00;1.00;;;;;;;17.02;44.98;98711.91;5012074;28;20061;-86
2021/11/02 10:12:33;;;;;;;2.22;0.90;;;;;;;16.99;45.25;98707.09;5015068;28;20062;-88
2021/11/02 10:15:09;;;;;;;3.47;1.00;;;;;;;15.93;47.14;98711.19;5014065;28;20046;-85
2021/11/02 10:18:18;;;;;;;2.42;0.70;;;;;;;16.00;46.56;98708.41;5016909;28;20054;-83
2021/11/02 10:21:13;;;;;;;3.97;1.10;;;;;;;16.04;46.55;98714.84;5012836;28;20052;-89
2021/11/02 10:24:10;;;;;;;2.33;0.90;;;;;;;16.07;46.47;98707.66;4986418;28;20060;-87
2021/11/02 10:26:46;;;;;;;2.60;0.95;;;;;;;15.85;46.81;98712.34;4985313;28;20050;-86
2021/11/02 10:30:12;;;;;;;1.75;0.60;;;;;;;16.16;46.92;98700.44;5015286;28;20054;-83
2021/11/02 10:32:44;;;;;;;2.88;0.70;;;;;;;15.65;46.99;98709.81;5010135;28;20057;-84
2021/11/02 10:35:21;;;;;;;2.80;0.82;;;;;;;15.61;46.94;98703.38;5016610;28;20067;-84
2021/11/02 10:38:01;;;;;;;1.92;0.80;;;;;;;15.75;47.18;98700.69;5011410;28;20053;-84
2021/11/02 10:40:38;;;;;;;3.55;0.93;;;;;;;15.40;47.53;98698.44;5010886;28;20077;-84
2021/11/02 10:43:30;;;;;;;3.22;1.00;;;;;;;15.79;46.97;98693.09;5016778;28;20049;-85
2021/11/02 10:46:03;;;;;;;3.45;1.10;;;;;;;15.88;46.99;98694.75;5010932;28;20058;-85
2021/11/02 10:48:39;;;;;;;3.35;1.10;;;;;;;15.89;47.33;98685.09;5019443;28;20054;-85
2021/11/02 10:51:09;;;;;;;4.70;1.58;;;;;;;16.10;46.12;98690.00;5015368;28;20057;-86
2021/11/02 10:53:38;;;;;;;;;;;;;;;16.29;46.17;98686.84;5006167;28;20050;-84
2021/11/02 10:56:12;;;;;;;3.35;0.98;;;;;;;16.76;44.66;98684.16;5012776;28;20325;-84
2021/11/02 10:58:45;;;;;;;2.80;1.08;;;;;;;16.67;44.69;98690.13;5010615;28;20061;-83
2021/11/02 11:01:14;;;;;;;5.20;1.20;;;;;;;16.93;44.50;98691.81;5017237;28;20058;-83
2021/11/02 11:03:42;;;;;;;1.90;1.00;;;;;;;16.64;44.38;98697.38;5017391;28;20065;-83
2021/11/02 11:06:13;;;;;;;2.85;0.95;;;;;;;16.27;45.07;98694.06;5009485;28;20499;-82
2021/11/02 11:08:42;;;;;;;3.72;1.23;;;;;;;15.58;47.39;98690.13;5015260;28;20036;-83
2021/11/02 11:11:11;;;;;;;2.73;0.90;;;;;;;15.22;48.22;98699.13;5016420;28;20065;-81
2021/11/02 11:13:39;;;;;;;3.70;1.25;;;;;;;14.74;49.19;98695.47;5014675;28;20050;-82
2021/11/02 11:16:11;;;;;;;2.73;1.00;;;;;;;14.53;50.00;98694.06;5014847;28;20045;-82
2021/11/02 11:18:53;;;;;;;4.40;1.40;;;;;;;14.92;49.47;98696.47;5005021;28;20414;-82
2021/11/02 11:21:22;;;;;;;3.70;1.20;;;;;;;15.03;50.11;98688.13;5009605;28;20054;-83
2021/11/02 11:23:57;;;;;;;2.53;1.00;;;;;;;15.04;49.52;98695.38;5015595;28;20041;-84
2021/11/02 11:26:25;;;;;;;6.38;1.20;;;;;;;14.93;49.27;98695.28;5021038;28;20419;-84
2021/11/02 11:28:55;;;;;;;4.00;0.97;;;;;;;14.70;50.29;98689.03;5024162;28;20042;-85
2021/11/02 11:31:24;;;;;;;1.63;0.75;;;;;;;14.98;49.48;98682.91;5025121;28;20392;-83
2021/11/02 11:34:01;;;;;;;2.58;0.95;;;;;;;14.63;49.70;98686.19;5023162;28;20144;-84
2021/11/02 11:36:31;;;;;;;2.60;0.90;;;;;;;14.21;50.63;98691.75;5023910;28;20072;-83
2021/11/02 11:39:04;;;;;;;3.60;1.17;;;;;;;14.12;51.00;98691.22;5019945;28;20057;-83
2021/11/02 11:41:35;;;;;;;2.85;0.93;;;;;;;14.18;51.46;98689.69;5027946;28;20060;-83
2021/11/02 11:44:05;;;;;;;2.05;0.80;;;;;;;14.18;51.20;98683.28;5019465;28;20490;-82
2021/11/02 11:46:33;;;;;;;3.63;0.80;;;;;;;14.45;50.85;98683.16;5022392;28;20434;-82
2021/11/02 11:49:02;;;;;;;3.05;1.20;;;;;;;14.94;50.24;98687.66;5024568;28;20081;-82
2021/11/02 11:51:32;;;;;;;2.88;1.15;;;;;;;15.03;48.92;98679.72;5014836;28;20058;-83
2021/11/02 11:54:01;;;;;;;4.35;1.15;;;;;;;14.48;50.24;98685.22;5022938;28;20058;-83
2021/11/02 11:56:36;;;;;;;4.38;1.40;;;;;;;14.67;49.66;98690.63;5022047;28;20422;-83
2021/11/02 11:59:04;;;;;;;2.42;0.88;;;;;;;14.55;49.97;98683.31;5013759;28;20065;-83
2021/11/02 12:01:39;;;;;;;2.97;1.00;;;;;;;14.55;49.73;98683.31;5022818;28;20053;-83
2021/11/02 12:04:14;;;;;;;2.42;1.00;;;;;;;14.79;49.61;98676.31;5019157;28;20050;-83
2021/11/02 12:06:48;;;;;;;2.88;0.90;;;;;;;14.96;49.48;98674.06;5018776;28;20058;-84
2021/11/02 12:09:21;;;;;;;1.65;0.85;;;;;;;14.87;49.49;98677.19;5019271;28;20526;-83
2021/11/02 12:11:51;;;;;;;2.88;0.77;;;;;;;14.85;49.15;98661.97;5012660;28;20503;-84
2021/11/02 12:14:25;;;;;;;2.33;0.80;;;;;;;15.17;49.00;98667.81;5013772;28;20065;-82
2021/11/02 12:16:58;;;;;;;3.38;1.15;;;;;;;14.90;48.73;98670.00;5009419;28;20057;-86
2021/11/02 12:19:46;;;;;;;2.72;0.90;;;;;;;15.38;46.27;98665.16;5005921;28;20061;-83
2021/11/02 12:22:20;;;;;;;2.97;0.90;;;;;;;15.58;46.33;98657.25;5009216;28;20057;-84
2021/11/02 12:24:48;;;;;;;2.10;0.90;;;;;;;15.70;46.04;98658.09;5018921;28;20149;-83
2021/11/02 12:27:18;;;;;;;2.88;0.80;;;;;;;15.02;46.77;98664.91;5012801;28;20138;-83
2021/11/02 12:29:47;;;;;;;2.97;0.88;;;;;;;15.05;47.30;98659.72;5011054;28;20062;-80
2021/11/02 12:32:17;;;;;;;2.30;0.70;;;;;;;15.41;46.81;98657.94;5010636;28;20525;-79
2021/11/02 12:34:55;;;;;;;3.15;0.85;;;;;;;15.66;46.40;98655.28;5006283;28;20047;-84
2021/11/02 12:37:23;;;;;;;1.83;0.70;;;;;;;15.41;46.81;98664.38;5010222;28;20046;-85
2021/11/02 12:39:51;;;;;;;3.30;1.00;;;;;;;15.47;46.77;98658.38;5017087;28;20057;-85
2021/11/02 12:42:33;;;;;;;2.33;1.00;;;;;;;15.34;46.99;98660.72;5019586;28;20054;-85
2021/11/02 12:45:03;;;;;;;1.52;0.70;;;;;;;15.36;46.73;98659.13;5018943;28;20045;-86
2021/11/02 12:47:32;;;;;;;2.72;1.00;;;;;;;15.06;47.34;98650.13;5013795;28;20427;-84
2021/11/02 12:50:02;;;;;;;;;;;;;;;14.99;47.83;98657.28;5014135;28;20037;-84
2021/11/02 12:52:34;;;;;;;2.85;0.95;;;;;;;15.18;47.28;98658.19;5017074;28;19944;-86
2021/11/02 12:55:04;;;;;;;3.25;0.75;;;;;;;15.32;47.28;98649.88;5019952;28;20389;-83
2021/11/02 12:57:35;;;;;;;2.00;0.70;;;;;;;15.04;47.59;98652.50;5020110;28;20054;-87
2021/11/02 13:00:06;;;;;;;2.67;0.80;;;;;;;15.29;45.81;98647.88;5012261;28;20042;-82
2021/11/02 13:02:35;;;;;;;1.80;0.73;;;;;;;16.17;43.71;98647.91;5020010;28;20053;-87
2021/11/02 13:05:07;;;;;;;2.05;0.98;;;;;;;16.72;42.43;98643.97;5013443;28;20057;-86
2021/11/02 13:07:39;;;;;;;2.08;0.63;;;;;;;17.44;41.02;98647.56;5017631;28;20058;-84
2021/11/02 13:10:15;;;;;;;1.52;0.70;;;;;;;17.77;39.96;98649.06;5019800;28;20054;-86
2021/11/02 13:12:45;;;;;;;1.95;0.70;;;;;;;16.57;42.42;98643.97;5010140;28;20054;-83
2021/11/02 13:15:13;;;;;;;1.88;0.70;;;;;;;16.84;42.35;98633.16;5017626;28;20054;-84
2021/11/02 13:17:45;;;;;;;2.03;0.50;;;;;;;16.23;43.59;98638.69;5023575;28;20049;-84
2021/11/02 13:20:28;;;;;;;1.17;0.70;;;;;;;15.96;44.26;98634.59;5013693;28;20057;-85
2021/11/02 13:22:56;;;;;;;1.55;0.82;;;;;;;15.62;45.77;98632.00;5017865;28;20053;-83
2021/11/02 13:25:24;;;;;;;2.38;0.70;;;;;;;15.32;45.96;98635.84;5016340;28;20050;-85
2021/11/02 13:27:55;;;;;;;1.55;0.70;;;;;;;15.29;46.26;98628.22;5017202;28;20060;-81
2021/11/02 13:30:28;;;;;;;0.93;0.52;;;;;;;15.22;46.61;98633.78;5019421;28;20491;-81
2021/11/02 13:33:08;;;;;;;2.80;0.65;;;;;;;15.04;46.50;98632.88;5012489;28;20054;-85
2021/11/02 13:35:51;;;;;;;2.17;0.70;;;;;;;14.86;47.67;98641.94;5013166;28;20054;-84
2021/11/02 13:38:23;;;;;;;1.50;0.80;;;;;;;14.32;49.09;98641.44;5019059;28;20064;-83
2021/11/02 13:40:51;;;;;;;1.92;0.70;;;;;;;14.37;49.20;98637.47;5009732;28;20046;-82
2021/11/02 13:43:26;;;;;;;1.08;0.60;;;;;;;14.09;49.98;98650.00;5014573;28;20057;-84
2021/11/02 13:45:54;;;;;;;1.58;0.70;;;;;;;13.86;50.49;98640.91;5012206;28;20057;-83
2021/11/02 13:48:22;;;;;;;4.32;0.70;;;;;;;13.67;50.96;98636.28;5014787;28;20426;-84
2021/11/02 13:50:54;;;;;;;2.67;0.95;;;;;;;13.51;51.70;98647.69;5009115;28;20046;-84
2021/11/02 13:53:22;;;;;;;3.25;0.70;;;;;;;13.71;51.37;98640.75;5014967;28;20395;-83
2021/11/02 13:55:50;;;;;;;2.00;0.60;;;;;;;13.28;52.80;98642.13;5014060;28;20057;-84
2021/11/02 13:58:17;;;;;;;1.52;0.57;;;;;;;13.35;53.17;98645.84;5016457;28;20057;-83
2021/11/02 14:00:46;;;;;;;2.15;0.60;;;;;;;13.44;52.80;98642.78;5012671;28;20050;-82
2021/11/02 14:03:18;;;;;;;1.92;0.60;;;;;;;13.32;53.12;98635.44;5013045;28;20069;-83
2021/11/02 14:05:46;;;;;;;1.20;0.70;;;;;;;12.95;54.14;98641.63;5016517;28;20061;-83
2021/11/02 14:08:20;;;;;;;0.97;0.50;;;;;;;13.10;53.14;98639.06;5013189;28;20116;-83
2021/11/02 14:10:55;;;;;;;1.70;0.55;;;;;;;13.13;53.74;98633.53;5012519;28;20488;-83
2021/11/02 14:13:44;;;;;;;1.00;0.60;;;;;;;13.10;53.83;98639.06;5015358;28;20054;-81
2021/11/02 14:16:13;;;;;;;2.25;1.00;;;;;;;13.23;53.75;98628.47;5014551;28;20172;-84
2021/11/02 14:18:40;;;;;;;1.70;0.90;;;;;;;12.86;57.20;98638.31;5005480;28;20076;-75
2021/11/02 14:21:10;;;;;;;1.73;0.70;;;;;;;13.23;54.24;98629.28;5010578;28;20073;-81
2021/11/02 14:23:41;;;;;;;3.15;0.60;;;;;;;13.55;53.11;98643.75;5009337;28;20065;-82
2021/11/02 14:26:23;;;;;;;1.35;0.60;;;;;;;13.57;52.53;98635.78;5008876;28;20065;-82
2021/11/02 14:28:52;;;;;;;1.70;0.70;;;;;;;13.44;53.08;98631.59;5010782;28;20057;-82
2021/11/02 14:31:52;;;;;;;2.90;0.80;;;;;;;13.19;53.34;98636.81;5012047;28;20037;-81
2021/11/02 14:34:50;;;;;;;1.50;0.50;;;;;;;13.20;53.15;98644.81;5012412;28;20064;-81
2021/11/02 14:37:21;;;;;;;1.40;0.60;;;;;;;13.27;53.67;98640.50;5011123;28;20042;-81
2021/11/02 14:40:02;;;;;;;0.93;0.40;;;;;;;12.89;53.72;98645.97;4999042;28;20057;-81
2021/11/02 14:42:45;;;;;;;1.50;0.60;;;;;;;12.85;54.60;98644.25;5013681;28;20495;-81
2021/11/02 14:45:14;;;;;;;1.35;0.50;;;;;;;12.91;54.01;98653.94;5005779;28;20073;-81
2021/11/02 14:47:42;;;;;;;1.08;0.60;;;;;;;12.98;54.51;98646.50;5012655;28;20054;-81
2021/11/02 14:50:35;;;;;;;1.35;0.70;;;;;;;12.63;55.51;98645.91;5009714;28;20065;-81
2021/11/02 14:53:14;;;;;;;2.50;0.95;;;;;;;12.67;55.25;98644.78;5009962;28;20479;-82
2021/11/02 14:55:51;;;;;;;1.30;0.50;;;;;;;12.58;55.63;98642.25;5010000;28;20065;-81
2021/11/02 14:58:42;;;;;;;3.38;0.52;;;;;;;12.62;55.70;98645.13;5012478;28;20058;-87
2021/11/02 15:01:11;;;;;;;1.10;0.60;;;;;;;12.73;55.62;98645.28;5004171;28;20495;-86
2021/11/02 15:03:39;;;;;;;1.50;0.60;;;;;;;12.75;55.53;98645.72;5009050;28;20058;-81
2021/11/02 15:06:11;;;;;;;2.22;0.70;;;;;;;12.75;55.65;98654.91;5011718;28;20050;-80
2021/11/02 15:08:41;;;;;;;1.13;0.60;;;;;;;12.69;56.13;98647.22;5008226;28;20180;-81
2021/11/02 15:11:11;;;;;;;2.15;0.50;;;;;;;12.34;56.93;98645.41;5002936;28;20415;-81
2021/11/02 15:13:42;;;;;;;1.50;0.70;;;;;;;12.59;56.33;98649.44;5012361;28;20054;-81
2021/11/02 15:16:10;;;;;;;1.38;0.80;;;;;;;12.51;56.70;98639.31;5013391;28;20065;-81
2021/11/02 15:18:41;;;;;;;1.42;0.90;;;;;;;12.56;56.34;98647.41;5012940;28;20050;-81
2021/11/02 15:21:09;;;;;;;1.45;0.80;;;;;;;12.57;56.46;98645.41;5009986;28;20062;-79
2021/11/02 15:23:41;;;;;;;2.22;0.70;;;;;;;12.61;56.84;98651.06;5007658;28;20049;-79
2021/11/02 15:26:12;;;;;;;2.78;0.73;;;;;;;12.49;57.44;98650.06;5010734;28;20471;-79
2021/11/02 15:28:42;;;;;;;2.88;0.95;;;;;;;12.43;57.39;98651.56;5014557;28;20058;-79
2021/11/02 15:31:11;;;;;;;2.70;0.80;;;;;;;12.41;57.58;98653.09;5015889;28;20064;-84
2021/11/02 15:33:39;;;;;;;1.95;0.75;;;;;;;12.21;58.45;98655.13;5009726;28;20509;-78
2021/11/02 15:36:18;;;;;;;1.60;0.70;;;;;;;12.30;58.20;98641.75;5013408;28;20046;-79
2021/11/02 15:38:56;;;;;;;1.70;0.75;;;;;;;12.14;58.84;98655.81;5013086;28;20050;-79
2021/11/02 15:41:28;;;;;;;1.40;0.70;;;;;;;12.11;59.30;98646.16;5009483;28;20527;-79
2021/11/02 15:43:58;;;;;;;1.58;0.70;;;;;;;12.17;59.27;98655.84;5011160;28;20054;-78
2021/11/02 15:46:33;;;;;;;2.30;0.90;;;;;;;12.18;59.09;98660.28;5015828;28;20074;-83
2021/11/02 15:49:04;;;;;;;1.73;0.82;;;;;;;11.68;61.83;98662.03;5015549;28;20073;-82
2021/11/02 15:51:36;;;;;;;1.70;0.80;;;;;;;12.00;61.32;98652.75;5018864;28;20061;-82
2021/11/02 15:54:12;;;;;;;2.60;0.80;;;;;;;11.83;61.80;98662.34;5014029;28;20510;-82
2021/11/02 15:56:41;;;;;;;2.90;1.08;;;;;;;11.82;61.14;98660.72;5017287;28;20451;-82
2021/11/02 15:59:10;;;;;;;1.60;0.80;;;;;;;11.64;61.55;98663.16;5017077;28;20054;-81
2021/11/02 16:01:43;;;;;;;2.97;0.90;;;;;;;11.87;60.97;98663.22;5012489;28;20045;-80
2021/11/02 16:04:19;;;;;;;1.55;0.80;;;;;;;11.85;61.05;98665.56;5013345;28;20062;-82
2021/11/02 16:07:05;;;;;;;1.30;0.85;;;;;;;11.70;61.10;98659.69;5013404;28;20053;-82
2021/11/02 16:09:53;;;;;;;2.33;1.48;;;;;;;11.73;60.81;98664.53;5011796;28;20533;-81
2021/11/02 16:12:35;;;;;;;1.40;0.80;;;;;;;11.37;61.43;98669.34;5014766;28;20403;-81
2021/11/02 16:15:11;;;;;;;2.47;0.85;;;;;;;11.35;61.36;98660.53;5014868;28;20058;-82
2021/11/02 16:17:42;;;;;;;2.35;0.70;;;;;;;11.48;60.66;98658.41;5007616;28;20050;-82
2021/11/02 16:20:17;;;;;;;1.30;0.70;;;;;;;11.49;60.68;98664.81;5006873;28;20061;-82
2021/11/02 16:22:50;;;;;;;1.48;0.77;;;;;;;11.64;60.53;98661.16;5015977;28;20422;-81
2021/11/02 16:25:17;;;;;;;1.80;0.85;;;;;;;11.21;61.93;98660.19;5009459;28;20046;-81
2021/11/02 16:28:02;;;;;;;1.30;0.68;;;;;;;11.36;61.49;98664.94;5013338;28;20502;-82
2021/11/02 16:30:34;;;;;;;2.20;0.75;;;;;;;11.48;61.79;98668.75;5008538;28;20065;-81